createdAt,value
2023-02-13T00:00:49.739Z,21.95
2023-02-13T00:03:17.448Z,21.58
2023-02-13T00:05:45.088Z,20.40
2023-02-13T00:08:12.504Z,20.45
2023-02-13T00:10:40.368Z,19.98
2023-02-13T00:13:07.738Z,20.65
2023-02-13T00:15:35.314Z,22.05
2023-02-13T00:18:03.463Z,27.65
2023-02-13T00:20:30.834Z,27.60
2023-02-13T00:23:01.356Z,26.37
2023-02-13T00:25:29.065Z,25.12
2023-02-13T00:27:56.870Z,25.23
2023-02-13T00:30:24.468Z,26.92
2023-02-13T00:32:52.207Z,26.35
2023-02-13T00:35:19.637Z,24.92
2023-02-13T00:37:47.030Z,22.73
2023-02-13T00:40:15.400Z,20.12
2023-02-13T00:42:42.810Z,19.62
2023-02-13T00:45:10.216Z,22.23
2023-02-13T00:47:37.891Z,20.02
2023-02-13T00:50:05.893Z,19.55
2023-02-13T00:52:33.310Z,18.98
2023-02-13T00:55:01.006Z,19.08
2023-02-13T00:57:29.292Z,18.15
2023-02-13T00:59:56.645Z,17.95
2023-02-13T01:02:24.632Z,18.80
2023-02-13T01:04:52.064Z,20.40
2023-02-13T01:07:19.528Z,20.80
2023-02-13T01:09:47.202Z,20.70
2023-02-13T01:12:14.601Z,20.35
2023-02-13T01:14:42.571Z,24.42
2023-02-13T01:17:10.784Z,24.67
2023-02-13T01:19:40.902Z,24.33
2023-02-13T01:22:08.725Z,26.08
2023-02-13T01:24:36.390Z,24.25
2023-02-13T01:27:03.937Z,23.17
2023-02-13T01:29:31.365Z,24.77
2023-02-13T01:31:59.294Z,25.42
2023-02-13T01:34:28.877Z,24.53
2023-02-13T01:36:56.281Z,23.83
2023-02-13T01:39:25.505Z,23.85
2023-02-13T01:41:52.893Z,25.27
2023-02-13T01:44:45.054Z,25.25
2023-02-13T01:47:16.264Z,26.77
2023-02-13T01:49:45.670Z,26.95
2023-02-13T01:52:14.332Z,24.77
2023-02-13T01:54:42.069Z,24.17
2023-02-13T01:57:19.670Z,25.80
2023-02-13T02:00:01.721Z,24.10
2023-02-13T02:02:32.178Z,24.48
2023-02-13T02:05:01.843Z,22.92
2023-02-13T02:07:30.093Z,23.87
2023-02-13T02:10:03.542Z,23.60
2023-02-13T02:12:40.661Z,22.90
2023-02-13T02:15:10.347Z,23.77
2023-02-13T02:17:38.341Z,20.95
2023-02-13T02:20:46.756Z,21.17
2023-02-13T02:23:49.677Z,21.90
2023-02-13T02:27:14.343Z,21.37
2023-02-13T02:30:24.699Z,21.10
2023-02-13T02:32:57.110Z,20.15
2023-02-13T02:35:37.411Z,21.23
2023-02-13T02:38:15.037Z,19.70
2023-02-13T02:41:01.622Z,18.92
2023-02-13T02:43:57.630Z,20.50
2023-02-13T02:46:34.432Z,19.37
2023-02-13T02:49:23.763Z,18.75
2023-02-13T02:52:07.753Z,19.70
2023-02-13T02:55:06.516Z,20.10
2023-02-13T02:58:02.891Z,20.00
2023-02-13T03:00:51.417Z,20.05
2023-02-13T03:03:41.418Z,20.50
2023-02-13T03:06:24.458Z,18.52
2023-02-13T03:09:17.547Z,20.53
2023-02-13T03:12:08.187Z,21.15
2023-02-13T03:14:35.879Z,19.87
2023-02-13T03:17:22.203Z,18.15
2023-02-13T03:20:22.518Z,18.70
2023-02-13T03:23:15.784Z,18.70
2023-02-13T03:26:33.138Z,17.48
2023-02-13T03:29:37.496Z,17.30
2023-02-13T03:32:20.398Z,17.20
2023-02-13T03:35:13.337Z,16.37
2023-02-13T03:37:56.573Z,18.23
2023-02-13T03:40:29.705Z,16.40
2023-02-13T03:43:15.396Z,14.18
2023-02-13T03:45:57.199Z,15.32
2023-02-13T03:48:46.461Z,17.13
2023-02-13T03:51:27.610Z,16.75
2023-02-13T03:53:57.421Z,17.98
2023-02-13T03:56:45.745Z,17.83
2023-02-13T03:59:21.387Z,18.90
2023-02-13T04:02:17.112Z,17.35
2023-02-13T04:05:18.920Z,16.15
2023-02-13T04:07:46.371Z,15.97
2023-02-13T04:10:16.453Z,14.27
2023-02-13T04:13:08.971Z,13.38
2023-02-13T04:15:48.207Z,14.45
2023-02-13T04:18:21.510Z,14.50
2023-02-13T04:20:49.379Z,14.45
2023-02-13T04:23:16.934Z,14.43
2023-02-13T04:25:50.740Z,15.40
2023-02-13T04:28:18.616Z,14.93
2023-02-13T04:30:46.175Z,14.97
2023-02-13T04:33:13.708Z,13.90
2023-02-13T04:35:41.417Z,16.70
2023-02-13T04:38:08.837Z,16.23
2023-02-13T04:40:36.258Z,16.10
2023-02-13T04:43:03.975Z,15.18
2023-02-13T04:45:31.397Z,15.48
2023-02-13T04:47:59.174Z,14.82
2023-02-13T04:50:26.860Z,16.50
2023-02-13T04:52:55.881Z,15.40
2023-02-13T04:55:24.593Z,16.00
2023-02-13T04:57:53.964Z,16.42
2023-02-13T05:00:26.245Z,16.35
2023-02-13T05:02:54.317Z,16.10
2023-02-13T05:05:21.749Z,15.30
2023-02-13T05:07:49.127Z,14.90
2023-02-13T05:10:16.928Z,13.18
2023-02-13T05:12:44.296Z,13.55
2023-02-13T05:15:11.787Z,13.07
2023-02-13T05:17:39.610Z,13.35
2023-02-13T05:20:07.534Z,14.85
2023-02-13T05:22:53.805Z,14.48
2023-02-13T05:25:21.534Z,14.85
2023-02-13T05:27:48.940Z,16.80
2023-02-13T05:30:16.342Z,16.42
2023-02-13T05:32:44.186Z,18.75
2023-02-13T05:35:12.893Z,23.17
2023-02-13T05:37:40.284Z,27.58
2023-02-13T05:40:09.119Z,20.70
2023-02-13T05:42:36.481Z,19.23
2023-02-13T05:45:04.075Z,19.42
2023-02-13T05:47:31.779Z,17.87
2023-02-13T05:49:59.263Z,17.25
2023-02-13T05:52:26.717Z,16.33
2023-02-13T05:54:54.591Z,17.33
2023-02-13T05:57:22.155Z,18.35
2023-02-13T05:59:49.633Z,19.25
2023-02-13T06:02:17.371Z,18.25
2023-02-13T06:04:45.121Z,16.60
2023-02-13T06:07:12.657Z,17.08
2023-02-13T06:09:40.049Z,16.40
2023-02-13T06:12:07.965Z,15.65
2023-02-13T06:14:35.679Z,15.82
2023-02-13T06:17:03.187Z,16.23
2023-02-13T06:19:30.861Z,15.48
2023-02-13T06:21:58.291Z,14.48
2023-02-13T06:24:25.665Z,15.35
2023-02-13T06:26:53.397Z,16.77
2023-02-13T06:29:20.787Z,17.67
2023-02-13T06:31:48.241Z,17.00
2023-02-13T06:34:15.987Z,15.82
2023-02-13T06:36:43.421Z,16.55
2023-02-13T06:39:11.290Z,16.65
2023-02-13T06:41:38.940Z,18.23
2023-02-13T06:44:07.816Z,17.00
2023-02-13T06:46:35.337Z,17.73
2023-02-13T06:49:03.190Z,18.92
2023-02-13T06:51:30.770Z,16.27
2023-02-13T06:53:58.152Z,16.62
2023-02-13T06:56:26.480Z,17.77
2023-02-13T06:58:53.927Z,17.87
2023-02-13T07:01:21.615Z,17.52
2023-02-13T07:03:49.380Z,16.75
2023-02-13T07:06:18.863Z,16.77
2023-02-13T07:08:47.124Z,17.80
2023-02-13T07:11:22.415Z,17.43
2023-02-13T07:13:49.860Z,17.40
2023-02-13T07:16:17.661Z,17.65
2023-02-13T07:18:47.281Z,17.85
2023-02-13T07:21:14.701Z,17.92
2023-02-13T07:23:42.409Z,19.50
2023-02-13T07:26:11.189Z,21.62
2023-02-13T07:28:38.710Z,21.13
2023-02-13T07:31:06.840Z,18.10
2023-02-13T07:33:34.693Z,19.65
2023-02-13T07:36:03.659Z,17.62
2023-02-13T07:38:32.068Z,18.53
2023-02-13T07:41:00.619Z,18.42
2023-02-13T07:43:28.697Z,18.17
2023-02-13T07:46:00.784Z,17.73
2023-02-13T07:48:29.313Z,17.35
2023-02-13T07:51:01.536Z,16.58
2023-02-13T07:53:29.464Z,17.85
2023-02-13T07:55:57.531Z,17.55
2023-02-13T07:58:25.060Z,18.00
2023-02-13T08:00:52.464Z,17.95
2023-02-13T08:03:20.318Z,17.95
2023-02-13T08:05:49.169Z,21.50
2023-02-13T08:08:17.112Z,22.37
2023-02-13T08:11:03.474Z,22.75
2023-02-13T08:13:30.876Z,22.55
2023-02-13T08:15:58.721Z,21.10
2023-02-13T08:18:27.651Z,21.60
2023-02-13T08:20:55.163Z,21.70
2023-02-13T08:23:22.887Z,17.40
2023-02-13T08:25:50.334Z,17.70
2023-02-13T08:28:17.794Z,16.52
2023-02-13T08:30:45.545Z,16.08
2023-02-13T08:33:12.948Z,17.00
2023-02-13T08:35:40.397Z,18.00
2023-02-13T08:38:09.330Z,18.08
2023-02-13T08:40:36.870Z,17.33
2023-02-13T08:43:06.052Z,19.42
2023-02-13T08:45:36.455Z,18.62
2023-02-13T08:48:04.316Z,21.73
2023-02-13T08:50:32.398Z,20.23
2023-02-13T08:53:00.485Z,18.50
2023-02-13T08:55:29.887Z,18.70
2023-02-13T08:58:06.606Z,19.27
2023-02-13T09:00:34.628Z,18.50
2023-02-13T09:03:02.780Z,19.48
2023-02-13T09:05:31.727Z,19.42
2023-02-13T09:08:02.831Z,19.27
2023-02-13T09:10:31.631Z,18.37
2023-02-13T09:12:59.418Z,18.25
2023-02-13T09:15:27.218Z,18.62
2023-02-13T09:17:54.663Z,19.50
2023-02-13T09:20:22.369Z,18.62
2023-02-13T09:22:49.763Z,19.52
2023-02-13T09:25:17.138Z,19.15
2023-02-13T09:27:44.808Z,18.50
2023-02-13T09:30:18.184Z,18.58
2023-02-13T09:32:45.858Z,18.70
2023-02-13T09:35:15.032Z,19.90
2023-02-13T09:37:42.510Z,20.23
2023-02-13T09:40:18.858Z,19.37
2023-02-13T09:42:46.743Z,16.62
2023-02-13T09:45:15.342Z,14.70
2023-02-13T09:47:44.075Z,15.05
2023-02-13T09:50:17.902Z,15.27
2023-02-13T09:52:46.751Z,14.48
2023-02-13T09:55:17.156Z,16.50
2023-02-13T09:58:04.467Z,15.00
2023-02-13T10:00:40.467Z,15.70
2023-02-13T10:03:27.179Z,15.25
2023-02-13T10:06:02.883Z,16.10
2023-02-13T10:08:55.537Z,16.70
2023-02-13T10:12:01.349Z,15.57
2023-02-13T10:17:15.031Z,15.23
2023-02-13T10:19:55.602Z,21.48
2023-02-13T10:22:43.361Z,19.33
2023-02-13T10:25:35.178Z,17.70
2023-02-13T10:28:11.386Z,17.62
2023-02-13T10:30:49.185Z,18.23
2023-02-13T10:33:20.692Z,18.55
2023-02-13T10:35:52.806Z,18.08
2023-02-13T10:38:22.301Z,16.75
2023-02-13T10:48:48.731Z,14.87
2023-02-13T10:52:00.898Z,12.95
2023-02-13T10:54:47.910Z,12.70
2023-02-13T10:57:43.869Z,11.93
2023-02-13T11:00:39.101Z,10.82
2023-02-13T11:08:19.354Z,7.50
2023-02-13T11:10:47.383Z,9.10
2023-02-13T11:13:17.076Z,7.70
2023-02-13T11:15:59.521Z,6.95
2023-02-13T11:18:30.469Z,5.45
2023-02-13T11:23:50.785Z,5.10
2023-02-13T11:26:31.644Z,5.15
2023-02-13T11:37:29.146Z,5.87
2023-02-13T11:40:00.131Z,6.70
2023-02-13T11:42:34.806Z,6.47
2023-02-13T11:45:08.512Z,6.30
2023-02-13T11:47:42.617Z,7.15
2023-02-13T11:50:22.704Z,7.95
2023-02-13T11:53:06.236Z,5.45
2023-02-13T11:55:34.344Z,6.78
2023-02-13T12:00:40.136Z,5.68
2023-02-13T12:03:20.091Z,5.10
2023-02-13T12:06:06.357Z,3.83
2023-02-13T12:08:37.355Z,4.70
2023-02-13T12:11:17.400Z,4.78
2023-02-13T12:13:45.410Z,5.43
2023-02-13T12:16:39.174Z,4.35
2023-02-13T12:19:25.953Z,5.47
2023-02-13T12:21:59.412Z,4.62
2023-02-13T12:24:37.987Z,4.50
2023-02-13T12:27:33.578Z,5.82
2023-02-13T12:30:19.580Z,6.72
2023-02-13T12:33:17.090Z,7.87
2023-02-13T12:35:57.018Z,6.32
2023-02-13T12:38:47.208Z,6.18
2023-02-13T12:41:54.505Z,7.18
2023-02-13T12:44:46.505Z,6.20
2023-02-13T12:47:27.051Z,6.70
2023-02-13T12:50:29.922Z,4.70
2023-02-13T12:53:20.544Z,4.05
2023-02-13T12:58:45.314Z,3.87
2023-02-13T13:01:38.905Z,4.53
2023-02-13T13:07:28.558Z,4.43
2023-02-13T13:10:15.952Z,3.45
2023-02-13T13:12:57.343Z,3.67
2023-02-13T13:15:43.152Z,4.12
2023-02-13T13:18:25.961Z,4.12
2023-02-13T13:20:59.774Z,2.85
2023-02-13T13:23:35.810Z,3.08
2023-02-13T13:31:07.729Z,2.85
2023-02-13T13:33:36.087Z,2.10
2023-02-13T13:36:53.551Z,2.28
2023-02-13T13:39:33.347Z,3.15
2023-02-13T13:42:09.917Z,3.97
2023-02-13T13:45:00.794Z,4.12
2023-02-13T13:47:49.964Z,4.40
2023-02-13T13:50:24.413Z,4.60
2023-02-13T13:53:10.853Z,4.80
2023-02-13T13:55:47.843Z,10.23
2023-02-13T13:58:24.251Z,9.43
2023-02-13T14:01:23.364Z,9.30
2023-02-13T14:03:52.938Z,7.87
2023-02-13T14:06:22.056Z,12.35
2023-02-13T14:08:49.646Z,12.68
2023-02-13T14:11:46.784Z,16.37
2023-02-13T14:14:32.629Z,9.48
2023-02-13T14:17:04.159Z,11.63
2023-02-13T14:19:39.751Z,13.77
2023-02-13T14:22:19.869Z,11.77
2023-02-13T14:25:04.437Z,7.72
2023-02-13T14:27:35.141Z,11.55
2023-02-13T14:30:03.312Z,6.57
2023-02-13T14:32:33.524Z,8.97
2023-02-13T14:35:20.160Z,9.70
2023-02-13T14:37:53.473Z,9.73
2023-02-13T14:40:22.310Z,10.30
2023-02-13T14:42:57.488Z,9.60
2023-02-13T14:45:29.872Z,8.13
2023-02-13T14:47:58.203Z,8.32
2023-02-13T14:50:43.062Z,7.83
2023-02-13T14:53:20.128Z,8.50
2023-02-13T14:55:53.868Z,7.20
2023-02-13T14:58:25.548Z,8.07
2023-02-13T15:01:01.250Z,7.68
2023-02-13T15:03:34.709Z,8.88
2023-02-13T15:06:05.951Z,8.70
2023-02-13T15:08:41.404Z,8.10
2023-02-13T15:11:29.257Z,7.75
2023-02-13T15:13:56.700Z,8.48
2023-02-13T15:16:26.317Z,9.30
2023-02-13T15:18:55.383Z,8.57
2023-02-13T15:21:33.179Z,9.10
2023-02-13T15:24:01.007Z,8.00
2023-02-13T15:26:29.672Z,8.25
2023-02-13T15:29:17.454Z,7.95
2023-02-13T15:31:53.346Z,6.23
2023-02-13T15:34:35.346Z,6.68
2023-02-13T15:37:03.263Z,6.20
2023-02-13T15:39:32.158Z,6.68
2023-02-13T15:42:02.044Z,6.78
2023-02-13T15:44:34.260Z,7.50
2023-02-13T15:47:07.033Z,6.93
2023-02-13T15:49:40.182Z,6.65
2023-02-13T15:52:13.328Z,6.93
2023-02-13T15:54:52.067Z,6.87
2023-02-13T15:57:20.659Z,6.87
2023-02-13T15:59:51.888Z,7.10
2023-02-13T16:02:43.426Z,6.62
2023-02-13T16:05:13.402Z,6.85
2023-02-13T16:07:52.829Z,7.30
2023-02-13T16:10:35.571Z,7.73
2023-02-13T16:13:05.195Z,7.37
2023-02-13T16:15:35.317Z,6.40
2023-02-13T16:18:07.068Z,6.25
2023-02-13T16:20:35.499Z,5.40
2023-02-13T16:23:14.839Z,5.37
2023-02-13T16:25:43.779Z,5.20
2023-02-13T16:28:40.835Z,6.47
2023-02-13T16:31:15.508Z,6.03
2023-02-13T16:33:45.083Z,6.65
2023-02-13T16:36:13.435Z,7.55
2023-02-13T16:38:48.323Z,7.80
2023-02-13T16:41:19.749Z,8.10
2023-02-13T16:43:54.506Z,8.65
2023-02-13T16:46:46.013Z,11.10
2023-02-13T16:49:20.505Z,11.80
2023-02-13T16:51:53.066Z,11.60
2023-02-13T16:54:38.600Z,11.65
2023-02-13T16:57:19.320Z,11.40
2023-02-13T16:59:47.573Z,12.18
2023-02-13T17:02:27.484Z,13.88
2023-02-13T17:05:07.249Z,11.63
2023-02-13T17:07:46.945Z,11.90
2023-02-13T17:10:38.221Z,12.90
2023-02-13T17:13:09.776Z,17.85
2023-02-13T17:15:38.006Z,13.97
2023-02-13T17:18:06.290Z,12.37
2023-02-13T17:20:35.240Z,12.20
2023-02-13T17:23:05.982Z,11.15
2023-02-13T17:25:36.725Z,10.88
2023-02-13T17:28:14.562Z,12.13
2023-02-13T17:30:43.877Z,12.10
2023-02-13T17:33:18.830Z,12.35
2023-02-13T17:35:48.674Z,12.85
2023-02-13T17:38:17.475Z,14.18
2023-02-13T17:40:46.128Z,16.73
2023-02-13T17:43:17.887Z,16.33
2023-02-13T17:45:47.062Z,17.37
2023-02-13T17:48:15.957Z,17.90
2023-02-13T17:50:44.598Z,20.65
2023-02-13T17:53:22.271Z,19.83
2023-02-13T17:55:51.390Z,20.17
2023-02-13T17:58:21.275Z,18.08
2023-02-13T18:00:50.432Z,17.10
2023-02-13T18:03:20.312Z,18.00
2023-02-13T18:05:52.928Z,19.17
2023-02-13T18:08:22.241Z,20.00
2023-02-13T18:10:51.232Z,20.83
2023-02-13T18:13:20.127Z,22.23
2023-02-13T18:15:49.314Z,22.25
2023-02-13T18:18:18.400Z,23.50
2023-02-13T18:20:46.877Z,23.38
2023-02-13T18:23:17.147Z,25.10
2023-02-13T18:25:46.587Z,21.33
2023-02-13T18:28:15.844Z,21.60
2023-02-13T18:30:44.805Z,24.55
2023-02-13T18:33:13.801Z,22.40
2023-02-13T18:35:42.944Z,20.90
2023-02-13T18:38:11.860Z,20.40
2023-02-13T18:40:41.043Z,19.12
2023-02-13T18:43:10.088Z,23.10
2023-02-13T18:45:39.261Z,20.88
2023-02-13T18:48:09.619Z,19.37
2023-02-13T18:50:41.475Z,19.48
2023-02-13T18:53:10.269Z,19.67
2023-02-13T18:55:39.393Z,20.60
2023-02-13T18:58:08.373Z,21.10
2023-02-13T19:00:38.186Z,23.27
2023-02-13T19:03:06.972Z,23.67
2023-02-13T19:05:35.837Z,25.70
2023-02-13T19:08:06.123Z,24.10
2023-02-13T19:10:34.908Z,21.40
2023-02-13T19:13:03.813Z,19.87
2023-02-13T19:15:32.746Z,35.13
2023-02-13T19:18:03.849Z,45.03
2023-02-13T19:20:33.798Z,41.10
2023-02-13T19:23:02.852Z,27.30
2023-02-13T19:25:38.205Z,23.45
2023-02-13T19:28:07.058Z,20.25
2023-02-13T19:30:35.657Z,18.70
2023-02-13T19:33:04.623Z,21.00
2023-02-13T19:35:32.901Z,17.98
2023-02-13T19:38:03.349Z,17.25
2023-02-13T19:40:33.229Z,17.90
2023-02-13T19:43:04.942Z,19.35
2023-02-13T19:45:34.327Z,19.20
2023-02-13T19:48:04.543Z,16.75
2023-02-13T19:50:32.831Z,18.33
2023-02-13T19:53:04.325Z,16.37
2023-02-13T19:55:34.628Z,22.65
2023-02-13T19:58:04.041Z,19.40
2023-02-13T20:00:34.007Z,17.87
2023-02-13T20:03:05.680Z,17.25
2023-02-13T20:05:43.286Z,17.47
2023-02-13T20:08:13.199Z,17.87
2023-02-13T20:10:48.285Z,19.62
2023-02-13T20:13:18.024Z,18.90
2023-02-13T20:15:45.926Z,19.20
2023-02-13T20:18:15.862Z,20.48
2023-02-13T20:20:44.865Z,20.45
2023-02-13T20:23:13.735Z,21.05
2023-02-13T20:25:42.740Z,21.42
2023-02-13T20:28:11.646Z,27.67
2023-02-13T20:30:41.753Z,29.63
2023-02-13T20:33:12.554Z,27.55
2023-02-13T20:35:41.432Z,26.10
2023-02-13T20:38:11.010Z,24.73
2023-02-13T20:40:39.981Z,23.95
2023-02-13T20:43:12.017Z,21.42
2023-02-13T20:45:43.180Z,20.95
2023-02-13T20:48:13.000Z,21.45
2023-02-13T20:50:42.932Z,21.67
2023-02-13T20:53:11.180Z,19.90
2023-02-13T20:55:39.846Z,21.75
2023-02-13T20:58:10.788Z,24.77
2023-02-13T21:00:39.440Z,25.83
2023-02-13T21:03:07.955Z,26.33
2023-02-13T21:05:43.134Z,29.52
2023-02-13T21:08:11.483Z,31.95
2023-02-13T21:10:40.111Z,28.40
2023-02-13T21:13:10.787Z,29.48
2023-02-13T21:15:39.676Z,41.63
2023-02-13T21:18:08.286Z,45.77
2023-02-13T21:20:38.236Z,41.25
2023-02-13T21:23:06.992Z,29.67
2023-02-13T21:25:34.477Z,28.83
2023-02-13T21:28:02.600Z,30.48
2023-02-13T21:30:33.115Z,32.42
2023-02-13T21:33:01.434Z,32.33
2023-02-13T21:35:30.998Z,29.85
2023-02-13T21:37:59.331Z,31.67
2023-02-13T21:40:27.384Z,31.17
2023-02-13T21:42:54.777Z,30.37
2023-02-13T21:45:22.743Z,34.53
2023-02-13T21:47:50.289Z,34.10
2023-02-13T21:50:17.962Z,33.15
2023-02-13T21:52:46.093Z,35.10
2023-02-13T21:55:13.660Z,30.20
2023-02-13T21:57:41.417Z,30.40
2023-02-13T22:00:10.644Z,26.92
2023-02-13T22:02:40.270Z,24.42
2023-02-13T22:05:08.350Z,25.52
2023-02-13T22:07:55.672Z,26.23
2023-02-13T22:10:23.402Z,29.45
2023-02-13T22:12:52.546Z,29.05
2023-02-13T22:15:20.467Z,31.17
2023-02-13T22:17:48.188Z,33.33
2023-02-13T22:20:15.572Z,30.40
2023-02-13T22:22:42.953Z,29.80
2023-02-13T22:25:11.447Z,24.85
2023-02-13T22:27:38.944Z,25.17
2023-02-13T22:30:06.849Z,24.55
2023-02-13T22:32:35.584Z,23.42
2023-02-13T22:35:03.085Z,22.60
2023-02-13T22:37:30.486Z,24.23
2023-02-13T22:39:58.215Z,28.80
2023-02-13T22:42:25.600Z,22.52
2023-02-13T22:44:52.979Z,23.98
2023-02-13T22:47:20.603Z,19.90
2023-02-13T22:49:48.076Z,17.67
2023-02-13T22:52:15.453Z,21.52
2023-02-13T22:54:43.105Z,17.57
2023-02-13T22:57:10.484Z,17.63
2023-02-13T22:59:40.122Z,18.73
2023-02-13T23:02:08.139Z,16.98
2023-02-13T23:04:35.597Z,15.23
2023-02-13T23:07:03.044Z,16.08
2023-02-13T23:09:30.692Z,16.00
2023-02-13T23:12:16.506Z,15.68
2023-02-13T23:14:44.229Z,13.95
2023-02-13T23:17:30.269Z,12.95
2023-02-13T23:19:58.134Z,12.65
2023-02-13T23:22:25.542Z,11.40
2023-02-13T23:24:52.920Z,11.80
2023-02-13T23:27:20.573Z,11.38
2023-02-13T23:29:48.052Z,11.50
2023-02-13T23:32:15.708Z,11.32
2023-02-13T23:34:43.718Z,11.23
2023-02-13T23:37:11.319Z,11.12
2023-02-13T23:39:38.714Z,11.85
2023-02-13T23:42:06.408Z,12.23
2023-02-13T23:44:33.797Z,12.43
2023-02-13T23:47:01.183Z,11.90
2023-02-13T23:49:28.909Z,11.23
2023-02-13T23:51:56.297Z,11.82
2023-02-13T23:54:24.025Z,11.55
2023-02-13T23:56:53.817Z,11.48
2023-02-13T23:59:22.458Z,12.27
